Time;durP1;ratioP1;P1;durP2;ratioP2;P2;SDS_P1;SDS_P2;PMS_P1;PMS_P2;Temp;Humidity;BMP_temperature;BMP_pressure;BME280_temperature;BME280_humidity;BME280_pressure;Samples;Min_cycle;Max_cycle;Signal;HPM_P1;HPM_P2
2022/04/21 00:00:19;;;;;;;;;4.50;1.75;;;;;13.99;34.45;100192.03;5096156;27;45419;-81
2022/04/21 00:02:45;;;;;;;;;1.75;1.75;;;;;13.97;34.00;100193.91;5100028;27;45569;-80
2022/04/21 00:05:11;;;;;;;;;4.50;3.00;;;;;13.96;34.43;100184.19;5080320;27;45385;-81
2022/04/21 00:07:37;;;;;;;;;2.00;2.00;;;;;13.94;34.54;100186.06;5100128;27;45381;-80
2022/04/21 00:10:04;;;;;;;;;1.75;1.25;;;;;13.92;33.95;100181.72;5097913;27;45576;-81
2022/04/21 00:12:30;;;;;;;;;2.25;1.25;;;;;13.89;34.24;100176.53;5076632;27;46338;-81
2022/04/21 00:14:55;;;;;;;;;6.00;3.50;;;;;13.85;34.36;100173.16;5102668;27;45475;-82
2022/04/21 00:17:21;;;;;;;;;2.00;2.00;;;;;13.83;34.44;100169.66;5098082;27;45368;-81
2022/04/21 00:19:46;;;;;;;;;2.00;2.00;;;;;13.80;34.44;100168.03;5098300;27;45613;-81
2022/04/21 00:24:55;;;;;;;;;4.00;2.00;;;;;13.74;34.25;100156.75;5076290;28;45460;-82
2022/04/21 00:27:21;;;;;;;;;5.00;4.25;;;;;13.74;34.61;100165.63;5080895;27;45427;-81
2022/04/21 00:29:46;;;;;;;;;5.50;4.00;;;;;13.71;34.85;100157.75;5076859;28;45417;-82
2022/04/21 00:32:13;;;;;;;;;6.50;4.00;;;;;13.67;34.75;100167.63;5080945;27;45700;-81
2022/04/21 00:34:38;;;;;;;;;1.75;1.75;;;;;13.61;34.66;100145.78;5080800;27;45335;-82
2022/04/21 00:37:04;;;;;;;;;4.00;4.00;;;;;13.65;34.66;100158.88;5096199;27;45407;-80
2022/04/21 00:39:32;;;;;;;;;1.00;1.00;;;;;13.61;34.35;100156.38;5078250;27;45595;-81
2022/04/21 00:41:59;;;;;;;;;3.50;3.50;;;;;13.60;34.64;100149.34;5066258;27;45501;-80
2022/04/21 00:44:28;;;;;;;;;1.50;1.50;;;;;13.56;34.57;100148.59;5088834;27;45331;-80
2022/04/21 00:46:55;;;;;;;;;5.00;4.00;;;;;13.54;35.42;100147.78;5079923;28;45367;-81
2022/04/21 00:49:21;;;;;;;;;4.00;3.00;;;;;13.50;35.16;100144.41;5077135;28;45645;-81
2022/04/21 00:51:50;;;;;;;;;4.50;3.00;;;;;13.49;35.23;100152.41;5076107;27;45509;-81
2022/04/21 00:54:17;;;;;;;;;1.50;1.50;;;;;13.48;34.88;100153.34;5056865;28;45383;-81
2022/04/21 00:56:43;;;;;;;;;3.00;3.00;;;;;13.44;34.75;100149.09;5075248;27;45375;-81
2022/04/21 00:59:12;;;;;;;;;4.00;2.00;;;;;13.42;34.79;100138.53;5077307;27;45466;-82
2022/04/21 01:04:24;;;;;;;;;3.00;3.00;;;;;13.35;34.98;100128.22;5075171;27;45463;-83
2022/04/21 01:06:53;;;;;;;;;2.00;2.00;;;;;13.35;34.97;100139.69;5073691;27;45383;-77
2022/04/21 01:09:19;;;;;;;;;4.50;4.50;;;;;13.35;35.20;100134.38;5074449;27;45327;-78
2022/04/21 01:11:46;;;;;;;;;4.00;4.00;;;;;13.31;34.95;100136.22;5075809;27;46181;-75
2022/04/21 01:14:13;;;;;;;;;2.00;2.00;;;;;13.29;35.00;100135.44;5076419;27;45440;-77
2022/04/21 01:16:38;;;;;;;;;10.00;4.75;;;;;13.25;35.25;100120.53;5073271;27;45560;-78
2022/04/21 01:19:04;;;;;;;;;7.25;6.50;;;;;13.23;36.36;100130.34;5074251;28;46442;-77
2022/04/21 01:21:29;;;;;;;;;9.25;2.50;;;;;13.13;36.15;100113.03;5074070;28;45479;-77
2022/04/21 01:23:55;;;;;;;;;3.00;3.00;;;;;13.11;36.27;100115.75;5055999;28;45486;-77
2022/04/21 01:26:21;;;;;;;;;3.00;3.00;;;;;13.14;36.57;100131.56;5074170;27;45446;-78
2022/04/21 01:28:49;;;;;;;;;4.50;4.00;;;;;13.13;36.50;100134.28;5093730;27;45585;-77
2022/04/21 01:31:21;;;;;;;;;5.00;5.00;;;;;13.11;37.02;100125.53;5094053;27;46187;-76
2022/04/21 01:33:48;;;;;;;;;4.50;4.50;;;;;13.08;36.66;100126.50;5075859;27;45571;-77
2022/04/21 01:36:14;;;;;;;;;4.75;4.75;;;;;13.06;37.03;100133.66;5073559;27;45465;-77
2022/04/21 01:41:23;;;;;;;;;7.00;3.50;;;;;12.95;36.79;100119.91;5094146;27;45326;-76
2022/04/21 01:43:50;;;;;;;;;6.50;4.75;;;;;12.96;36.50;100121.66;5100257;27;45349;-76
2022/04/21 01:46:15;;;;;;;;;3.00;3.00;;;;;12.92;37.01;100114.72;5096109;27;45412;-77
2022/04/21 01:48:41;;;;;;;;;12.75;4.00;;;;;12.89;36.82;100110.41;5094747;27;45605;-77
2022/04/21 01:51:07;;;;;;;;;4.00;4.00;;;;;12.88;36.88;100098.06;5093012;27;45384;-77
2022/04/21 01:53:32;;;;;;;;;5.25;3.00;;;;;12.88;36.46;100108.66;5094032;27;46160;-76
2022/04/21 01:55:57;;;;;;;;;5.00;2.50;;;;;12.85;36.93;100110.59;5094411;27;45376;-78
2022/04/21 01:58:23;;;;;;;;;4.00;2.50;;;;;12.80;36.37;100106.31;5073791;27;45615;-77
2022/04/21 02:00:48;;;;;;;;;2.50;2.50;;;;;12.79;36.34;100107.22;5073291;28;46071;-76
2022/04/21 02:03:13;;;;;;;;;1.00;1.00;;;;;12.74;36.64;100101.22;5081378;27;45327;-77
2022/04/21 02:05:39;;;;;;;;;1.50;1.50;;;;;12.75;36.43;100102.06;5097715;27;45422;-77
2022/04/21 02:08:04;;;;;;;;;4.25;3.00;;;;;12.74;36.53;100106.53;5094638;27;45522;-78
2022/04/21 02:10:30;;;;;;;;;4.50;4.50;;;;;12.72;36.35;100110.16;5096266;27;45895;-79
2022/04/21 02:12:56;;;;;;;;;4.75;3.00;;;;;12.64;36.88;100085.72;5102604;27;45338;-80
2022/04/21 02:15:23;;;;;;;;;3.50;3.50;;;;;12.68;36.30;100095.25;5086559;27;45353;-80
2022/04/21 02:17:48;;;;;;;;;1.75;1.75;;;;;12.60;36.34;100093.78;5083765;27;45446;-82
2022/04/21 02:20:15;;;;;;;;;7.00;5.00;;;;;12.54;36.63;100086.03;5080361;28;46082;-80
2022/04/21 02:22:41;;;;;;;;;3.00;3.00;;;;;12.62;36.91;100102.53;5061728;28;45483;-82
2022/04/21 02:25:09;;;;;;;;;5.50;4.50;;;;;12.57;36.99;100079.75;5060290;28;45474;-82
2022/04/21 02:27:37;;;;;;;;;1.50;1.50;;;;;12.55;36.99;100090.41;5078441;27;45585;-81
2022/04/21 02:30:06;;;;;;;;;4.50;4.50;;;;;12.48;37.22;100080.97;5081414;28;46231;-80
2022/04/21 02:32:32;;;;;;;;;4.00;4.00;;;;;12.51;37.05;100079.97;5094862;27;45359;-80
2022/04/21 02:34:57;;;;;;;;;7.25;3.00;;;;;12.47;36.97;100076.56;5095064;27;45362;-81
2022/04/21 02:37:23;;;;;;;;;3.00;3.00;;;;;12.45;37.17;100078.41;5092808;27;45630;-82
2022/04/21 02:39:49;;;;;;;;;4.00;2.00;;;;;12.37;37.09;100069.84;5083143;28;45527;-82
2022/04/21 02:42:15;;;;;;;;;3.25;3.25;;;;;12.39;37.08;100079.50;5089807;27;45528;-81
2022/04/21 02:44:40;;;;;;;;;1.25;1.25;;;;;12.35;37.09;100072.56;5109476;27;45343;-82
2022/04/21 02:47:07;;;;;;;;;5.00;4.75;;;;;12.35;37.62;100075.22;5100751;27;45355;-80
2022/04/21 02:49:35;;;;;;;;;4.25;4.25;;;;;12.30;37.61;100074.53;5097917;27;45588;-81
2022/04/21 02:52:01;;;;;;;;;7.00;3.50;;;;;12.28;37.87;100065.75;5099156;27;45528;-81
2022/04/21 02:57:20;;;;;;;;;2.50;2.50;;;;;12.20;38.37;100068.66;5091694;27;45449;-81
2022/04/21 02:59:46;;;;;;;;;2.00;2.00;;;;;12.16;37.59;100061.75;5079826;28;45556;-81
2022/04/21 03:02:12;;;;;;;;;2.50;2.25;;;;;12.13;38.49;100060.97;5083784;28;45491;-81
2022/04/21 03:04:38;;;;;;;;;2.50;2.50;;;;;12.14;38.75;100068.88;5081451;27;45962;-80
2022/04/21 03:07:03;;;;;;;;;6.50;4.50;;;;;12.11;38.58;100071.63;5088584;27;45355;-82
2022/04/21 03:09:29;;;;;;;;;2.25;2.25;;;;;12.07;38.93;100062.94;5078646;28;45485;-82
2022/04/21 03:12:00;;;;;;;;;4.00;4.00;;;;;12.06;38.56;100065.63;5080532;28;45512;-81
2022/04/21 03:14:26;;;;;;;;;4.00;4.00;;;;;12.01;38.78;100063.16;5083395;28;45375;-80
2022/04/21 03:16:51;;;;;;;;;5.25;2.50;;;;;11.96;38.69;100053.63;5084463;27;45435;-81
2022/04/21 03:19:16;;;;;;;;;4.00;4.00;;;;;11.91;39.08;100048.44;5095550;27;45706;-81
2022/04/21 03:24:25;;;;;;;;;6.00;4.00;;;;;11.85;38.67;100041.56;5080301;27;45426;-80
2022/04/21 03:26:53;;;;;;;;;4.50;4.50;;;;;11.82;38.64;100046.97;5078029;27;45391;-81
2022/04/21 03:29:19;;;;;;;;;6.25;4.00;;;;;11.79;38.88;100041.78;5076470;27;46422;-81
2022/04/21 03:31:44;;;;;;;;;4.50;2.75;;;;;11.77;39.15;100043.63;5076819;27;45492;-81
2022/04/21 03:34:14;;;;;;;;;4.25;2.25;;;;;11.71;39.18;100043.81;5095569;27;45390;-81
2022/04/21 03:36:45;;;;;;;;;6.75;4.00;;;;;11.69;39.04;100035.03;5095611;27;45364;-81
2022/04/21 03:39:11;;;;;;;;;4.25;4.25;;;;;11.67;39.36;100036.88;5077322;28;46177;-82
2022/04/21 03:41:37;;;;;;;;;4.00;4.00;;;;;11.64;39.25;100037.84;5076988;28;45362;-81
2022/04/21 03:44:04;;;;;;;;;4.00;4.00;;;;;11.64;39.35;100042.28;5084009;28;45318;-80
2022/04/21 03:46:31;;;;;;;;;10.00;3.00;;;;;11.63;38.71;100045.84;5079843;28;45378;-81
2022/04/21 03:48:56;;;;;;;;;5.50;5.50;;;;;11.58;38.68;100043.34;5076050;27;45549;-82
2022/04/21 03:51:21;;;;;;;;;0.00;0.00;;;;;11.54;38.36;100037.28;5060567;28;45367;-81
2022/04/21 03:53:47;;;;;;;;;6.25;3.25;;;;;11.57;38.61;100044.28;5079506;27;45434;-81
2022/04/21 03:56:12;;;;;;;;;4.75;3.75;;;;;11.56;38.86;100040.75;5075834;28;45348;-80
2022/04/21 03:58:37;;;;;;;;;6.75;5.25;;;;;11.55;37.88;100044.34;5075807;27;46114;-81
2022/04/21 04:01:04;;;;;;;;;2.25;2.25;;;;;11.53;38.39;100050.56;5057609;28;45449;-82
2022/04/21 04:03:29;;;;;;;;;4.25;4.25;;;;;11.46;38.47;100036.66;5077079;28;45395;-80
2022/04/21 04:05:54;;;;;;;;;3.00;3.00;;;;;11.47;38.36;100046.34;5079761;28;45476;-81
2022/04/21 04:11:03;;;;;;;;;9.00;5.75;;;;;11.45;38.26;100064.06;5076551;28;45452;-81
2022/04/21 04:13:29;;;;;;;;;7.25;4.25;;;;;11.34;38.15;100034.41;5079503;28;45485;-81
2022/04/21 04:15:56;;;;;;;;;7.50;4.00;;;;;11.41;38.32;100056.28;5085532;28;45444;-82
2022/04/21 04:18:23;;;;;;;;;8.00;6.00;;;;;11.38;38.05;100051.94;5081898;27;46104;-81
2022/04/21 04:20:48;;;;;;;;;6.75;4.00;;;;;11.26;38.11;100042.59;5077105;28;45407;-81
2022/04/21 04:23:18;;;;;;;;;5.00;5.00;;;;;11.35;38.06;100047.59;5084583;27;45557;-81
2022/04/21 04:25:44;;;;;;;;;7.00;3.50;;;;;11.33;38.45;100046.78;5076688;28;45501;-82
2022/04/21 04:28:09;;;;;;;;;4.50;4.50;;;;;11.28;38.16;100039.91;5076505;27;45428;-81
2022/04/21 04:30:38;;;;;;;;;5.25;3.75;;;;;11.30;38.29;100051.31;5077516;28;45454;-81
2022/04/21 04:33:04;;;;;;;;;6.25;6.00;;;;;11.24;38.08;100038.28;5076790;28;45418;-82
2022/04/21 04:35:29;;;;;;;;;4.50;4.50;;;;;11.26;38.32;100047.03;5076277;28;45424;-81
2022/04/21 04:37:55;;;;;;;;;3.25;3.00;;;;;11.22;38.38;100046.25;5074599;27;45612;-80
2022/04/21 04:40:20;;;;;;;;;3.00;3.00;;;;;11.20;38.63;100056.91;5096219;27;45422;-81
2022/04/21 04:42:46;;;;;;;;;4.50;4.50;;;;;11.18;38.28;100061.34;5097519;27;45391;-82
2022/04/21 04:47:55;;;;;;;;;5.00;4.00;;;;;11.20;38.18;100064.84;5086632;27;45798;-82
2022/04/21 04:50:21;;;;;;;;;6.25;4.50;;;;;11.18;38.31;100061.34;5075551;28;45601;-77
2022/04/21 04:52:49;;;;;;;;;6.75;4.00;;;;;11.27;38.61;100080.50;5074219;28;45406;-77
2022/04/21 04:55:15;;;;;;;;;4.00;3.00;;;;;11.12;38.25;100052.75;5074449;28;45454;-77
2022/04/21 04:57:40;;;;;;;;;0.00;0.00;;;;;11.19;38.66;100063.09;5077558;27;46200;-80
2022/04/21 05:00:08;;;;;;;;;11.25;6.25;;;;;11.33;38.45;100069.75;5075383;27;45471;-82
2022/04/21 05:02:34;;;;;;;;;4.50;3.00;;;;;11.59;38.33;100073.34;5075528;28;45320;-82
2022/04/21 05:04:59;;;;;;;;;5.00;4.00;;;;;11.81;37.36;100066.44;5076662;28;45319;-82
2022/04/21 05:07:25;;;;;;;;;4.00;3.75;;;;;12.10;37.07;100064.63;5076470;27;46236;-83
2022/04/21 05:09:50;;;;;;;;;7.00;5.75;;;;;12.40;37.10;100064.44;5097269;27;45468;-81
2022/04/21 05:12:15;;;;;;;;;6.75;6.75;;;;;12.83;36.04;100070.84;5098326;27;45522;-81
2022/04/21 05:14:41;;;;;;;;;6.25;4.00;;;;;13.21;35.84;100068.53;5090683;27;45682;-80
2022/04/21 05:17:06;;;;;;;;;3.25;3.25;;;;;13.58;34.62;100061.78;5079470;28;46046;-81
2022/04/21 05:19:32;;;;;;;;;6.50;4.00;;;;;14.07;34.41;100066.84;5075783;27;45409;-77
2022/04/21 05:22:03;;;;;;;;;5.00;4.75;;;;;14.55;33.69;100070.09;5074436;28;45425;-77
2022/04/21 05:24:32;;;;;;;;;5.25;4.00;;;;;14.99;32.69;100064.59;5069309;28;45604;-79
2022/04/21 05:26:59;;;;;;;;;4.75;4.75;;;;;15.35;31.77;100071.78;5072476;28;45354;-78
2022/04/21 05:32:09;;;;;;;;;7.75;5.00;;;;;16.06;31.41;100059.47;5076356;27;45543;-77
2022/04/21 05:34:34;;;;;;;;;7.75;7.75;;;;;16.20;31.20;100053.44;5093327;27;45462;-77
2022/04/21 05:37:01;;;;;;;;;7.75;6.00;;;;;16.66;30.96;100056.38;5064575;27;45512;-78
2022/04/21 05:39:28;;;;;;;;;7.25;7.00;;;;;17.17;30.47;100051.84;5065342;28;45520;-77
2022/04/21 05:41:55;;;;;;;;;4.50;4.50;;;;;17.71;29.65;100047.91;5077530;28;45531;-77
2022/04/21 05:44:21;;;;;;;;;9.00;8.00;;;;;18.12;29.12;100050.00;5078074;28;45580;-77
2022/04/21 05:46:47;;;;;;;;;6.25;5.50;;;;;18.42;28.48;100049.09;5077844;27;45759;-79
2022/04/21 05:49:13;;;;;;;;;8.00;5.75;;;;;18.76;28.30;100049.69;5086963;27;45757;-79
2022/04/21 05:51:38;;;;;;;;;6.25;6.25;;;;;18.85;27.71;100054.50;5097840;27;45517;-81
2022/04/21 05:54:06;;;;;;;;;6.00;4.50;;;;;19.05;27.75;100049.69;5096920;27;45569;-78
2022/04/21 05:56:32;;;;;;;;;8.25;7.50;;;;;19.26;27.19;100042.97;5095999;27;45393;-77
2022/04/21 05:58:58;;;;;;;;;8.50;6.00;;;;;19.45;26.62;100048.00;5082529;27;45348;-76
2022/04/21 06:01:24;;;;;;;;;6.50;6.50;;;;;19.21;27.33;100045.09;5079790;27;45349;-78
2022/04/21 06:03:50;;;;;;;;;5.50;5.50;;;;;19.06;27.16;100041.56;5077919;27;45748;-77
2022/04/21 06:06:15;;;;;;;;;9.00;9.00;;;;;18.93;26.90;100038.81;5076081;28;45471;-78
2022/04/21 06:08:41;;;;;;;;;10.00;8.00;;;;;18.75;27.40;100031.91;5063773;27;45551;-77
2022/04/21 06:11:06;;;;;;;;;9.25;7.00;;;;;18.82;27.33;100041.28;5095819;27;45472;-78
2022/04/21 06:13:32;;;;;;;;;9.00;8.75;;;;;18.99;27.45;100034.88;5096554;27;45424;-77
2022/04/21 06:15:58;;;;;;;;;9.75;6.00;;;;;18.83;27.07;100037.66;5083990;27;46452;-78
2022/04/21 06:18:25;;;;;;;;;5.75;5.75;;;;;19.12;27.27;100032.28;5050272;28;338510;-78
2022/04/21 06:20:52;;;;;;;;;11.00;9.75;;;;;19.54;26.73;100030.47;5065643;28;45499;-78
2022/04/21 06:23:17;;;;;;;;;8.00;5.75;;;;;19.90;26.69;100034.34;5057207;28;45714;-78
2022/04/21 06:25:43;;;;;;;;;3.00;1.50;;;;;20.00;26.00;100032.75;5055164;28;45298;-79
2022/04/21 06:28:10;;;;;;;;;9.25;9.25;;;;;20.13;25.79;100032.75;5069006;28;45706;-82
2022/04/21 06:30:35;;;;;;;;;9.25;8.00;;;;;20.12;25.96;100031.06;5074157;28;45580;-82
2022/04/21 06:33:01;;;;;;;;;7.75;7.50;;;;;20.48;25.79;100025.94;5064727;27;45404;-82
2022/04/21 06:35:27;;;;;;;;;8.00;5.50;;;;;20.84;25.71;100029.69;5066654;28;46250;-80
2022/04/21 06:37:56;;;;;;;;;4.50;4.00;;;;;21.27;24.65;100018.50;5064386;28;45428;-81
2022/04/21 06:40:22;;;;;;;;;8.00;8.00;;;;;21.64;24.54;100034.66;5062288;28;45731;-80
2022/04/21 06:42:47;;;;;;;;;9.50;6.25;;;;;22.06;23.96;100020.72;5067645;28;45407;-81
2022/04/21 06:48:04;;;;;;;;;6.25;6.25;;;;;21.74;24.37;100027.63;5065878;28;45616;-79
2022/04/21 06:50:38;;;;;;;;;12.00;10.00;;;;;21.73;23.75;100020.50;5061001;28;45377;-76
2022/04/21 06:53:06;;;;;;;;;4.75;4.00;;;;;21.89;24.00;100020.19;5060124;28;45592;-78
2022/04/21 06:55:32;;;;;;;;;12.50;9.00;;;;;22.11;23.66;100029.31;5059086;28;47329;-77
2022/04/21 06:57:57;;;;;;;;;8.00;8.00;;;;;22.70;23.56;100021.13;5064869;28;45413;-79
2022/04/21 07:00:26;;;;;;;;;7.75;5.75;;;;;22.92;22.82;100021.25;5067885;27;45692;-77
2022/04/21 07:02:56;;;;;;;;;9.00;7.25;;;;;22.68;23.28;100014.13;5064933;27;45564;-78
2022/04/21 07:05:23;;;;;;;;;9.00;6.00;;;;;23.32;23.15;100015.31;5060655;28;45354;-79
2022/04/21 07:07:49;;;;;;;;;9.25;9.25;;;;;23.83;22.43;100005.72;5063173;28;45373;-78
2022/04/21 07:10:16;;;;;;;;;11.00;9.50;;;;;23.62;22.06;100011.91;5065290;27;45504;-79
2022/04/21 07:12:41;;;;;;;;;9.75;7.50;;;;;23.40;22.50;100021.78;5064331;28;45607;-78
2022/04/21 07:15:09;;;;;;;;;10.00;9.00;;;;;23.27;22.50;100017.56;5063055;28;46015;-79
2022/04/21 07:17:36;;;;;;;;;7.25;7.25;;;;;22.56;23.18;100001.66;5072289;27;45791;-77
2022/04/21 07:20:04;;;;;;;;;9.00;7.00;;;;;22.73;23.49;100001.19;5084931;27;45591;-77
2022/04/21 07:22:29;;;;;;;;;9.75;7.50;;;;;23.05;23.00;100009.34;5084318;27;45683;-79
2022/04/21 07:24:56;;;;;;;;;10.00;6.75;;;;;23.15;23.26;100003.22;5063639;27;45510;-78
2022/04/21 07:27:23;;;;;;;;;6.25;6.25;;;;;23.35;22.93;100010.56;5078525;27;45497;-79
2022/04/21 07:29:49;;;;;;;;;5.50;5.25;;;;;23.73;22.89;100002.91;5067607;27;45432;-82
2022/04/21 07:32:15;;;;;;;;;12.00;10.00;;;;;24.04;22.33;100001.22;5085163;27;45512;-80
2022/04/21 07:34:40;;;;;;;;;8.50;8.00;;;;;24.08;22.27;100001.78;5056474;27;45936;-79
2022/04/21 07:37:08;;;;;;;;;7.00;7.00;;;;;23.76;22.79;99998.13;5081990;27;45667;-82
2022/04/21 07:39:40;;;;;;;;;6.50;6.00;;;;;24.58;21.90;99991.19;5075295;27;45619;-80
2022/04/21 07:42:07;;;;;;;;;9.50;8.00;;;;;24.54;21.46;99989.72;5082285;27;45539;-80
2022/04/21 07:44:35;;;;;;;;;9.50;8.25;;;;;24.83;21.79;99991.72;5085639;27;45997;-77
2022/04/21 07:47:00;;;;;;;;;11.00;8.50;;;;;24.67;20.94;99994.91;5084777;27;45496;-80
2022/04/21 07:54:56;;;;;;;;;7.25;5.50;;;;;25.30;21.12;99989.28;5070757;27;45960;-79
2022/04/21 07:57:22;;;;;;;;;7.75;7.75;;;;;25.60;20.63;99995.59;5079275;27;45477;-78
2022/04/21 07:59:50;;;;;;;;;10.50;8.00;;;;;25.36;20.77;99996.00;5061613;27;45391;-78
2022/04/21 08:02:16;;;;;;;;;9.00;8.50;;;;;25.84;20.92;99994.28;5084124;27;45584;-78
2022/04/21 08:04:43;;;;;;;;;10.50;8.50;;;;;26.14;20.44;99984.31;5076157;27;45434;-77
2022/04/21 08:07:09;;;;;;;;;9.00;7.50;;;;;25.73;20.49;99994.47;5093923;27;45296;-75
2022/04/21 08:09:34;;;;;;;;;12.50;8.00;;;;;25.54;21.15;99993.47;5085080;27;45339;-76
2022/04/21 08:11:59;;;;;;;;;10.00;9.00;;;;;25.80;20.90;99998.31;5085634;27;45302;-76
2022/04/21 08:14:25;;;;;;;;;11.00;9.00;;;;;25.63;21.16;99989.91;5083884;27;45798;-74
2022/04/21 08:16:54;;;;;;;;;7.00;6.00;;;;;25.84;21.47;100002.41;5087138;27;45466;-74
2022/04/21 08:19:22;;;;;;;;;9.25;9.25;;;;;25.81;20.31;100008.09;5086914;27;45477;-73
2022/04/21 08:21:47;;;;;;;;;9.00;7.75;;;;;25.55;21.09;99997.84;5085045;27;46704;-73
2022/04/21 08:32:40;;;;;;;;;8.75;8.75;;;;;26.92;19.78;100005.75;5086407;27;45393;-75
2022/04/21 08:35:07;;;;;;;;;7.25;6.75;;;;;26.06;20.01;99994.03;5073921;27;45645;-74
2022/04/21 08:37:35;;;;;;;;;9.75;9.75;;;;;25.75;20.49;99998.75;5075144;27;45500;-75
2022/04/21 08:40:03;;;;;;;;;13.50;13.00;;;;;25.12;21.00;99993.66;5082859;27;45460;-74
2022/04/21 08:42:31;;;;;;;;;15.50;15.00;;;;;24.75;21.92;99988.81;5074580;27;45345;-75
2022/04/21 08:44:58;;;;;;;;;9.75;8.75;;;;;24.58;22.21;99999.28;5090144;27;45496;-75
2022/04/21 08:47:27;;;;;;;;;10.75;10.75;;;;;24.95;21.88;99995.16;5083476;27;45339;-77
2022/04/21 08:49:57;;;;;;;;;11.75;8.00;;;;;25.34;22.50;99988.03;5079665;27;45328;-79
2022/04/21 08:52:24;;;;;;;;;8.50;8.00;;;;;25.69;21.17;99986.63;5084119;27;45428;-77
2022/04/21 08:54:49;;;;;;;;;10.00;10.00;;;;;25.49;21.47;99988.47;5092461;27;45572;-81
2022/04/21 08:57:15;;;;;;;;;9.75;9.75;;;;;25.28;21.21;100001.19;5092410;27;45437;-81
2022/04/21 08:59:41;;;;;;;;;13.50;9.75;;;;;25.33;21.55;99999.00;5095379;27;45557;-81
2022/04/21 09:02:06;;;;;;;;;9.25;8.00;;;;;25.02;21.45;99990.91;5078041;27;45652;-81
2022/04/21 09:04:32;;;;;;;;;9.75;9.75;;;;;24.44;22.28;99992.34;5081794;27;45450;-81
2022/04/21 09:07:19;;;;;;;;;13.25;12.25;;;;;25.10;22.22;100001.00;5087013;27;45395;-80
2022/04/21 09:10:14;;;;;;;;;13.00;12.50;;;;;24.99;21.48;99999.28;5085883;27;45431;-80
2022/04/21 09:12:47;;;;;;;;;5.75;5.75;;;;;24.90;22.23;99998.28;5084090;27;45574;-80
2022/04/21 09:15:20;;;;;;;;;5.00;4.00;;;;;24.74;21.76;100001.47;5092480;27;45550;-80
2022/04/21 09:17:48;;;;;;;;;7.75;7.75;;;;;24.34;22.54;99990.59;5089144;27;45660;-81
2022/04/21 09:20:17;;;;;;;;;7.50;7.50;;;;;24.75;21.65;99992.41;5082804;27;45322;-81
2022/04/21 09:22:52;;;;;;;;;10.25;10.00;;;;;24.62;21.65;100000.72;5087509;27;45444;-77
2022/04/21 09:25:28;;;;;;;;;2.50;2.50;;;;;24.28;22.46;99987.44;5074388;27;45543;-77
2022/04/21 09:27:56;;;;;;;;;9.00;7.50;;;;;24.15;22.54;99999.44;5078834;27;45543;-79
2022/04/21 09:30:22;;;;;;;;;10.50;5.75;;;;;23.45;23.61;99994.44;5078284;27;45387;-78
2022/04/21 09:32:54;;;;;;;;;12.00;8.75;;;;;23.75;23.80;99991.03;5082297;27;45351;-80
2022/04/21 09:35:22;;;;;;;;;11.00;10.00;;;;;24.16;22.64;99991.22;5083828;27;45577;-80
2022/04/21 09:37:52;;;;;;;;;12.00;9.25;;;;;24.46;22.61;99978.72;5083971;27;45434;-80
2022/04/21 09:40:23;;;;;;;;;8.75;7.00;;;;;24.22;22.77;99981.75;5079339;27;45466;-80
2022/04/21 09:43:03;;;;;;;;;12.50;10.00;;;;;23.76;23.12;99989.16;5082021;27;45570;-81
2022/04/21 09:48:17;;;;;;;;;6.50;6.50;;;;;23.51;23.29;99972.38;5082168;27;45524;-80
2022/04/21 09:50:49;;;;;;;;;7.25;6.00;;;;;22.75;24.00;99966.88;5083920;27;45433;-81
2022/04/21 09:53:15;;;;;;;;;10.00;9.25;;;;;22.76;24.34;99962.34;5075948;27;45644;-80
2022/04/21 09:55:41;;;;;;;;;10.25;10.25;;;;;22.78;24.08;99969.34;5074366;27;45540;-82
2022/04/21 09:58:09;;;;;;;;;8.00;6.00;;;;;22.95;24.08;99962.56;5084611;27;45398;-82
2022/04/21 10:00:36;;;;;;;;;10.75;10.00;;;;;22.87;23.63;99936.25;5077996;27;45450;-81
2022/04/21 10:03:03;;;;;;;;;5.00;5.00;;;;;22.88;23.86;99964.91;5087451;27;45799;-81
2022/04/21 10:05:31;;;;;;;;;9.25;9.25;;;;;23.22;23.52;99961.31;5083420;27;46041;-81
2022/04/21 10:08:00;;;;;;;;;6.25;4.50;;;;;23.62;23.28;99962.53;5082492;27;45385;-81
2022/04/21 10:10:27;;;;;;;;;8.50;6.75;;;;;23.49;23.32;99957.28;5084235;27;45430;-81
2022/04/21 10:12:57;;;;;;;;;7.50;3.00;;;;;23.70;22.96;99965.41;5079613;27;45613;-83
2022/04/21 10:15:24;;;;;;;;;12.00;9.00;;;;;23.61;22.47;99950.91;5093655;27;46007;-77
2022/04/21 10:17:49;;;;;;;;;7.50;6.00;;;;;23.33;22.66;99971.22;5081521;27;45398;-81
2022/04/21 10:20:16;;;;;;;;;9.25;9.25;;;;;22.87;23.33;99952.41;5079341;27;45372;-82
2022/04/21 10:22:42;;;;;;;;;14.75;9.75;;;;;23.18;23.24;99939.16;5085558;27;45390;-81
2022/04/21 10:25:08;;;;;;;;;6.75;5.25;;;;;23.44;23.89;99928.03;5084117;27;45444;-82
2022/04/21 10:27:47;;;;;;;;;13.75;9.50;;;;;23.74;22.50;99939.91;5057286;27;45501;-80
2022/04/21 10:30:21;;;;;;;;;8.00;8.00;;;;;23.33;22.44;99949.66;5069849;27;45292;-80
2022/04/21 10:32:57;;;;;;;;;7.00;6.00;;;;;23.34;22.82;99919.03;5094704;27;45384;-81
2022/04/21 10:35:28;;;;;;;;;10.00;10.00;;;;;23.20;22.68;99925.53;5098460;27;46335;-82
2022/04/21 10:38:12;;;;;;;;;9.25;8.25;;;;;23.08;23.07;99927.41;5099320;27;45504;-79
2022/04/21 10:40:58;;;;;;;;;8.25;8.25;;;;;23.13;23.17;99933.28;5067489;27;45612;-81
2022/04/21 10:43:24;;;;;;;;;9.50;7.00;;;;;23.02;23.33;99917.13;5089492;27;45473;-81
2022/04/21 10:46:17;;;;;;;;;12.50;8.50;;;;;23.48;23.18;99918.69;5093326;27;45389;-81
2022/04/21 10:48:44;;;;;;;;;9.00;7.50;;;;;23.79;22.29;99905.28;5093528;27;45421;-80
2022/04/21 10:51:12;;;;;;;;;4.50;4.25;;;;;24.19;22.28;99911.81;5092379;27;45436;-81
2022/04/21 10:57:12;;;;;;;;;9.75;8.75;;;;;23.95;21.55;99907.56;5086850;27;45486;-82
2022/04/21 10:59:31;;;;;;;;;15.00;15.00;;;;;24.04;21.92;99908.63;5091581;27;45264;-80
2022/04/21 11:02:12;;;;;;;;;11.25;10.75;;;;;24.12;21.27;99901.53;5079778;28;45461;-83
2022/04/21 11:04:38;;;;;;;;;8.50;8.50;;;;;24.17;21.36;99908.38;5086847;27;45515;-83
2022/04/21 11:07:12;;;;;;;;;2.00;1.75;;;;;23.94;21.42;99909.41;5085200;27;45302;-81
2022/04/21 11:09:42;;;;;;;;;6.75;6.75;;;;;23.97;22.11;99904.72;5083817;27;45527;-81
2022/04/21 11:12:11;;;;;;;;;6.00;4.75;;;;;24.51;21.08;99900.88;5092191;27;45558;-80
2022/04/21 11:14:39;;;;;;;;;13.75;13.75;;;;;24.76;20.68;99899.53;5084646;27;45531;-80
2022/04/21 11:17:06;;;;;;;;;14.75;14.75;;;;;24.79;20.60;99898.41;5095483;27;45438;-80
2022/04/21 11:19:37;;;;;;;;;5.00;5.00;;;;;24.82;20.55;99890.03;5084049;27;45374;-87
2022/04/21 11:22:04;;;;;;;;;14.00;11.50;;;;;24.82;20.59;99876.50;5085222;27;45357;-81
2022/04/21 11:24:55;;;;;;;;;13.50;9.50;;;;;25.26;20.28;99874.25;5089274;27;45509;-83
2022/04/21 11:27:22;;;;;;;;;13.25;11.75;;;;;24.85;20.00;99876.22;5089575;27;45567;-80
2022/04/21 11:29:48;;;;;;;;;12.25;9.50;;;;;24.38;20.18;99868.69;5070787;27;45578;-79
2022/04/21 11:32:20;;;;;;;;;13.50;11.00;;;;;24.17;20.51;99870.59;5086749;27;45402;-75
2022/04/21 11:35:12;;;;;;;;;13.75;12.50;;;;;24.26;20.78;99881.44;5084825;27;45600;-76
2022/04/21 11:37:50;;;;;;;;;11.50;10.00;;;;;24.25;19.94;99874.34;5073905;27;45968;-75
2022/04/21 11:40:24;;;;;;;;;9.50;9.50;;;;;24.18;20.51;99867.75;5079745;27;45521;-78
2022/04/21 11:42:50;;;;;;;;;9.75;9.00;;;;;24.42;20.82;99858.47;5079157;27;45438;-76
2022/04/21 11:45:20;;;;;;;;;14.00;8.50;;;;;24.62;20.19;99868.34;5086525;27;45672;-77
2022/04/21 11:47:46;;;;;;;;;8.75;8.75;;;;;24.68;20.47;99861.56;5083986;27;46407;-76
2022/04/21 11:50:13;;;;;;;;;25.00;22.50;;;;;25.19;20.24;99844.25;5086957;27;45466;-77
2022/04/21 11:52:42;;;;;;;;;8.75;8.75;;;;;25.28;19.08;99856.06;5083280;27;45478;-76
2022/04/21 11:55:09;;;;;;;;;11.75;9.25;;;;;25.07;18.82;99858.91;5081825;27;45409;-77
2022/04/21 11:57:44;;;;;;;;;9.25;9.00;;;;;25.00;19.28;99850.50;5081516;27;45476;-77
2022/04/21 12:00:12;;;;;;;;;2.75;1.75;;;;;24.87;19.02;99847.25;5078114;27;45558;-76
2022/04/21 12:08:07;;;;;;;;;10.50;9.75;;;;;24.08;20.33;99834.47;5086615;27;45787;-77
2022/04/21 12:10:35;;;;;;;;;6.00;6.00;;;;;23.58;20.46;99843.28;5060131;27;45533;-77
2022/04/21 12:13:02;;;;;;;;;6.25;5.75;;;;;23.30;20.99;99853.72;5087647;27;45599;-78
2022/04/21 12:15:31;;;;;;;;;6.00;6.00;;;;;23.26;21.63;99838.81;5099197;27;45438;-77
2022/04/21 12:18:01;;;;;;;;;10.50;9.25;;;;;22.82;21.37;99843.34;5092277;27;46357;-76